Glen Ridge, New Jersey
Current Conditions -  °F | °C
As of 8:53 PM on Saturday 20 Dec 2014 (Local Time) from KCDW Reporting Station
Overcast Overcast  
Wind Chill: 31°   Ceiling: 2600
Heat Index: 31°   Visibility: 10mi
Dew Point: 21°   Wind: 3mph
Humidity: 67%   Direction: NA
Pressure: 30.3"   Gusts: NA
Location:  40.8°N, 74.2°W
Report Text: KCDW 210153Z VRB03KT 10SM OVC026 M01/M06 A3030 RMK AO2 SLP267 T10061061
Loading
Personal Weather Stations






























Interactive Weather Map New forecast layout! Learn more

10-Day Weather Forecast

Advertisements
Track Severe Weather on mobile